sensor_id;sensor_type;location;lat;lon;timestamp;temperature;humidity
33255;DHT22;19623;52.482;9.762;2023-03-01T00:01:48;-2.50;99.90
33255;DHT22;19623;52.482;9.762;2023-03-01T00:04:14;-2.50;99.90
33255;DHT22;19623;52.482;9.762;2023-03-01T00:06:40;-2.60;99.90
33255;DHT22;19623;52.482;9.762;2023-03-01T00:09:07;-2.60;99.90
33255;DHT22;19623;52.482;9.762;2023-03-01T00:11:33;-2.60;99.90
33255;DHT22;19623;52.482;9.762;2023-03-01T00:14:01;-2.70;99.90
33255;DHT22;19623;52.482;9.762;2023-03-01T00:16:32;-2.70;99.90
33255;DHT22;19623;52.482;9.762;2023-03-01T00:19:02;-2.80;99.90
33255;DHT22;19623;52.482;9.762;2023-03-01T00:21:28;-2.80;99.90
33255;DHT22;19623;52.482;9.762;2023-03-01T00:23:54;-2.80;99.90
33255;DHT22;19623;52.482;9.762;2023-03-01T00:26:22;-2.80;99.90
33255;DHT22;19623;52.482;9.762;2023-03-01T00:28:48;-2.70;99.90
33255;DHT22;19623;52.482;9.762;2023-03-01T00:31:15;-2.70;99.90
33255;DHT22;19623;52.482;9.762;2023-03-01T00:33:42;-2.70;99.90
33255;DHT22;19623;52.482;9.762;2023-03-01T00:36:09;-2.80;99.90
33255;DHT22;19623;52.482;9.762;2023-03-01T00:38:36;-2.80;99.90
33255;DHT22;19623;52.482;9.762;2023-03-01T00:41:14;-2.80;99.90
33255;DHT22;19623;52.482;9.762;2023-03-01T00:43:40;-2.90;99.90
33255;DHT22;19623;52.482;9.762;2023-03-01T00:46:08;-2.90;99.90
33255;DHT22;19623;52.482;9.762;2023-03-01T00:48:35;-2.90;99.90
33255;DHT22;19623;52.482;9.762;2023-03-01T00:51:06;-3.00;99.90
33255;DHT22;19623;52.482;9.762;2023-03-01T00:53:32;-3.00;99.90
33255;DHT22;19623;52.482;9.762;2023-03-01T00:55:58;-3.00;99.90
33255;DHT22;19623;52.482;9.762;2023-03-01T00:58:24;-3.00;99.90
33255;DHT22;19623;52.482;9.762;2023-03-01T01:00:50;-3.00;99.90
33255;DHT22;19623;52.482;9.762;2023-03-01T01:03:15;-3.00;99.90
33255;DHT22;19623;52.482;9.762;2023-03-01T01:05:41;-3.00;99.90
33255;DHT22;19623;52.482;9.762;2023-03-01T01:08:06;-3.10;99.90
33255;DHT22;19623;52.482;9.762;2023-03-01T01:10:34;-3.20;99.90
33255;DHT22;19623;52.482;9.762;2023-03-01T01:12:59;-3.20;99.90
33255;DHT22;19623;52.482;9.762;2023-03-01T01:15:25;-3.10;99.90
33255;DHT22;19623;52.482;9.762;2023-03-01T01:17:51;-3.10;99.90
33255;DHT22;19623;52.482;9.762;2023-03-01T01:20:17;-3.20;99.90
33255;DHT22;19623;52.482;9.762;2023-03-01T01:22:43;-3.10;99.90
33255;DHT22;19623;52.482;9.762;2023-03-01T01:25:09;-3.10;99.90
33255;DHT22;19623;52.482;9.762;2023-03-01T01:27:34;-3.10;99.90
33255;DHT22;19623;52.482;9.762;2023-03-01T01:30:00;-3.10;99.90
33255;DHT22;19623;52.482;9.762;2023-03-01T01:32:26;-3.10;99.90
33255;DHT22;19623;52.482;9.762;2023-03-01T01:34:51;-3.10;99.90
33255;DHT22;19623;52.482;9.762;2023-03-01T01:37:17;-3.20;99.90
33255;DHT22;19623;52.482;9.762;2023-03-01T01:39:43;-3.20;99.90
33255;DHT22;19623;52.482;9.762;2023-03-01T01:42:16;-3.20;99.90
33255;DHT22;19623;52.482;9.762;2023-03-01T01:44:45;-3.20;99.90
33255;DHT22;19623;52.482;9.762;2023-03-01T01:47:22;-3.20;99.90
33255;DHT22;19623;52.482;9.762;2023-03-01T01:49:54;-3.30;99.90
33255;DHT22;19623;52.482;9.762;2023-03-01T01:52:34;-3.30;99.90
33255;DHT22;19623;52.482;9.762;2023-03-01T01:57:37;-3.30;99.90
33255;DHT22;19623;52.482;9.762;2023-03-01T02:00:12;-3.30;99.90
33255;DHT22;19623;52.482;9.762;2023-03-01T02:02:38;-3.30;99.90
33255;DHT22;19623;52.482;9.762;2023-03-01T02:05:20;-3.30;99.90
33255;DHT22;19623;52.482;9.762;2023-03-01T02:07:49;-3.30;99.90
33255;DHT22;19623;52.482;9.762;2023-03-01T02:10:16;-3.30;99.90
33255;DHT22;19623;52.482;9.762;2023-03-01T02:12:42;-3.30;99.90
33255;DHT22;19623;52.482;9.762;2023-03-01T02:15:08;-3.40;99.90
33255;DHT22;19623;52.482;9.762;2023-03-01T02:17:34;-3.40;99.90
33255;DHT22;19623;52.482;9.762;2023-03-01T02:20:22;-3.30;99.90
33255;DHT22;19623;52.482;9.762;2023-03-01T02:22:49;-3.30;99.90
33255;DHT22;19623;52.482;9.762;2023-03-01T02:30:41;-3.50;99.90
33255;DHT22;19623;52.482;9.762;2023-03-01T02:33:27;-3.50;99.90
33255;DHT22;19623;52.482;9.762;2023-03-01T02:35:54;-3.50;99.90
33255;DHT22;19623;52.482;9.762;2023-03-01T02:38:22;-3.50;99.90
33255;DHT22;19623;52.482;9.762;2023-03-01T02:40:50;-3.50;99.90
33255;DHT22;19623;52.482;9.762;2023-03-01T02:43:18;-3.50;99.90
33255;DHT22;19623;52.482;9.762;2023-03-01T02:45:49;-3.60;99.90
33255;DHT22;19623;52.482;9.762;2023-03-01T02:48:16;-3.60;99.90
33255;DHT22;19623;52.482;9.762;2023-03-01T02:50:47;-3.60;99.90
33255;DHT22;19623;52.482;9.762;2023-03-01T02:56:08;-3.60;99.90
33255;DHT22;19623;52.482;9.762;2023-03-01T02:58:41;-3.70;99.90
33255;DHT22;19623;52.482;9.762;2023-03-01T03:01:13;-3.70;99.90
33255;DHT22;19623;52.482;9.762;2023-03-01T03:03:41;-3.70;99.90
33255;DHT22;19623;52.482;9.762;2023-03-01T03:06:06;-3.60;99.90
33255;DHT22;19623;52.482;9.762;2023-03-01T03:08:32;-3.60;99.90
33255;DHT22;19623;52.482;9.762;2023-03-01T03:10:58;-3.60;99.90
33255;DHT22;19623;52.482;9.762;2023-03-01T03:13:23;-3.70;99.90
33255;DHT22;19623;52.482;9.762;2023-03-01T03:15:55;-3.80;99.90
33255;DHT22;19623;52.482;9.762;2023-03-01T03:18:22;-3.90;99.90
33255;DHT22;19623;52.482;9.762;2023-03-01T03:20:48;-3.90;99.90
33255;DHT22;19623;52.482;9.762;2023-03-01T03:23:19;-3.90;99.90
33255;DHT22;19623;52.482;9.762;2023-03-01T03:25:44;-3.80;99.90
33255;DHT22;19623;52.482;9.762;2023-03-01T03:28:12;-3.90;99.90
33255;DHT22;19623;52.482;9.762;2023-03-01T03:30:40;-3.90;99.90
33255;DHT22;19623;52.482;9.762;2023-03-01T03:33:06;-3.90;99.90
33255;DHT22;19623;52.482;9.762;2023-03-01T03:35:39;-4.00;99.90
33255;DHT22;19623;52.482;9.762;2023-03-01T03:38:07;-4.00;99.90
33255;DHT22;19623;52.482;9.762;2023-03-01T03:40:42;-4.00;99.90
33255;DHT22;19623;52.482;9.762;2023-03-01T03:43:20;-4.00;99.90
33255;DHT22;19623;52.482;9.762;2023-03-01T03:45:47;-4.00;99.90
33255;DHT22;19623;52.482;9.762;2023-03-01T03:48:14;-4.00;99.90
33255;DHT22;19623;52.482;9.762;2023-03-01T03:50:41;-4.00;99.90
33255;DHT22;19623;52.482;9.762;2023-03-01T03:53:09;-4.10;99.90
33255;DHT22;19623;52.482;9.762;2023-03-01T03:55:35;-4.10;99.90
33255;DHT22;19623;52.482;9.762;2023-03-01T03:58:05;-4.10;99.90
33255;DHT22;19623;52.482;9.762;2023-03-01T04:00:41;-4.10;99.90
33255;DHT22;19623;52.482;9.762;2023-03-01T04:03:08;-4.20;99.90
33255;DHT22;19623;52.482;9.762;2023-03-01T04:05:35;-4.20;99.90
33255;DHT22;19623;52.482;9.762;2023-03-01T04:08:01;-4.20;99.90
33255;DHT22;19623;52.482;9.762;2023-03-01T04:10:28;-4.20;99.90
33255;DHT22;19623;52.482;9.762;2023-03-01T04:12:54;-4.20;99.90
33255;DHT22;19623;52.482;9.762;2023-03-01T04:15:22;-4.20;99.90
33255;DHT22;19623;52.482;9.762;2023-03-01T04:17:51;-4.20;99.90
33255;DHT22;19623;52.482;9.762;2023-03-01T04:20:20;-4.20;99.90
33255;DHT22;19623;52.482;9.762;2023-03-01T04:22:56;-4.20;99.90
33255;DHT22;19623;52.482;9.762;2023-03-01T04:25:22;-4.20;99.90
33255;DHT22;19623;52.482;9.762;2023-03-01T04:27:48;-4.10;99.90
33255;DHT22;19623;52.482;9.762;2023-03-01T04:30:14;-4.10;99.90
33255;DHT22;19623;52.482;9.762;2023-03-01T04:32:40;-4.20;99.90
33255;DHT22;19623;52.482;9.762;2023-03-01T04:35:06;-4.10;99.90
33255;DHT22;19623;52.482;9.762;2023-03-01T04:37:32;-4.10;99.90
33255;DHT22;19623;52.482;9.762;2023-03-01T04:39:57;-4.10;99.90
33255;DHT22;19623;52.482;9.762;2023-03-01T04:42:23;-4.10;99.90
33255;DHT22;19623;52.482;9.762;2023-03-01T04:44:49;-4.10;99.90
33255;DHT22;19623;52.482;9.762;2023-03-01T04:47:16;-4.10;99.90
33255;DHT22;19623;52.482;9.762;2023-03-01T04:49:42;-4.10;99.90
33255;DHT22;19623;52.482;9.762;2023-03-01T04:52:08;-4.10;99.90
33255;DHT22;19623;52.482;9.762;2023-03-01T04:54:35;-4.20;99.90
33255;DHT22;19623;52.482;9.762;2023-03-01T04:57:02;-4.10;99.90
33255;DHT22;19623;52.482;9.762;2023-03-01T04:59:29;-4.20;99.90
33255;DHT22;19623;52.482;9.762;2023-03-01T05:01:55;-4.20;99.90
33255;DHT22;19623;52.482;9.762;2023-03-01T05:04:22;-4.20;99.90
33255;DHT22;19623;52.482;9.762;2023-03-01T05:06:48;-4.20;99.90
33255;DHT22;19623;52.482;9.762;2023-03-01T05:09:14;-4.30;99.90
33255;DHT22;19623;52.482;9.762;2023-03-01T05:11:39;-4.40;99.90
33255;DHT22;19623;52.482;9.762;2023-03-01T05:14:06;-4.40;99.90
33255;DHT22;19623;52.482;9.762;2023-03-01T05:16:32;-4.50;99.90
33255;DHT22;19623;52.482;9.762;2023-03-01T05:18:58;-4.50;99.90
33255;DHT22;19623;52.482;9.762;2023-03-01T05:21:25;-4.50;99.90
33255;DHT22;19623;52.482;9.762;2023-03-01T05:23:51;-4.50;99.90
33255;DHT22;19623;52.482;9.762;2023-03-01T05:26:18;-4.50;99.90
33255;DHT22;19623;52.482;9.762;2023-03-01T05:28:44;-4.40;99.90
33255;DHT22;19623;52.482;9.762;2023-03-01T05:31:10;-4.50;99.90
33255;DHT22;19623;52.482;9.762;2023-03-01T05:33:37;-4.40;99.90
33255;DHT22;19623;52.482;9.762;2023-03-01T05:36:04;-4.40;99.90
33255;DHT22;19623;52.482;9.762;2023-03-01T05:38:30;-4.50;99.90
33255;DHT22;19623;52.482;9.762;2023-03-01T05:40:55;-4.50;99.90
33255;DHT22;19623;52.482;9.762;2023-03-01T05:43:21;-4.50;99.90
33255;DHT22;19623;52.482;9.762;2023-03-01T05:45:47;-4.60;99.90
33255;DHT22;19623;52.482;9.762;2023-03-01T05:48:13;-4.60;99.90
33255;DHT22;19623;52.482;9.762;2023-03-01T05:50:43;-4.60;99.90
33255;DHT22;19623;52.482;9.762;2023-03-01T05:53:10;-4.70;99.90
33255;DHT22;19623;52.482;9.762;2023-03-01T05:55:36;-4.70;99.90
33255;DHT22;19623;52.482;9.762;2023-03-01T05:58:05;-4.70;99.90
33255;DHT22;19623;52.482;9.762;2023-03-01T06:00:32;-4.80;99.90
33255;DHT22;19623;52.482;9.762;2023-03-01T06:02:59;-4.80;99.90
33255;DHT22;19623;52.482;9.762;2023-03-01T06:05:25;-4.80;99.90
33255;DHT22;19623;52.482;9.762;2023-03-01T06:07:51;-4.80;99.90
33255;DHT22;19623;52.482;9.762;2023-03-01T06:10:19;-4.90;99.90
33255;DHT22;19623;52.482;9.762;2023-03-01T06:12:46;-4.90;99.90
33255;DHT22;19623;52.482;9.762;2023-03-01T06:15:13;-4.90;99.90
33255;DHT22;19623;52.482;9.762;2023-03-01T06:17:41;-4.80;99.90
33255;DHT22;19623;52.482;9.762;2023-03-01T06:22:37;-4.70;99.90
33255;DHT22;19623;52.482;9.762;2023-03-01T06:25:07;-4.70;99.90
33255;DHT22;19623;52.482;9.762;2023-03-01T06:27:33;-4.60;99.90
33255;DHT22;19623;52.482;9.762;2023-03-01T06:29:59;-4.60;99.90
33255;DHT22;19623;52.482;9.762;2023-03-01T06:32:34;-4.50;99.90
33255;DHT22;19623;52.482;9.762;2023-03-01T06:35:04;-4.50;99.90
33255;DHT22;19623;52.482;9.762;2023-03-01T06:37:30;-4.50;99.90
33255;DHT22;19623;52.482;9.762;2023-03-01T06:39:56;-4.40;99.90
33255;DHT22;19623;52.482;9.762;2023-03-01T06:42:22;-4.40;99.90
33255;DHT22;19623;52.482;9.762;2023-03-01T06:44:48;-4.50;99.90
33255;DHT22;19623;52.482;9.762;2023-03-01T06:47:13;-4.50;99.90
33255;DHT22;19623;52.482;9.762;2023-03-01T06:49:39;-4.60;99.90
33255;DHT22;19623;52.482;9.762;2023-03-01T06:52:05;-4.60;99.90
33255;DHT22;19623;52.482;9.762;2023-03-01T06:54:30;-4.50;99.90
33255;DHT22;19623;52.482;9.762;2023-03-01T06:56:56;-4.50;99.90
33255;DHT22;19623;52.482;9.762;2023-03-01T06:59:22;-4.40;99.90
33255;DHT22;19623;52.482;9.762;2023-03-01T07:01:47;-4.30;99.90
33255;DHT22;19623;52.482;9.762;2023-03-01T07:04:13;-4.20;99.90
33255;DHT22;19623;52.482;9.762;2023-03-01T07:06:39;-4.10;99.90
33255;DHT22;19623;52.482;9.762;2023-03-01T07:09:05;-4.10;99.90
33255;DHT22;19623;52.482;9.762;2023-03-01T07:11:31;-4.00;99.90
33255;DHT22;19623;52.482;9.762;2023-03-01T07:13:57;-3.90;99.90
33255;DHT22;19623;52.482;9.762;2023-03-01T07:16:23;-3.80;99.90
33255;DHT22;19623;52.482;9.762;2023-03-01T07:18:49;-3.70;99.90
33255;DHT22;19623;52.482;9.762;2023-03-01T07:21:15;-3.70;99.90
33255;DHT22;19623;52.482;9.762;2023-03-01T07:23:41;-3.60;99.90
33255;DHT22;19623;52.482;9.762;2023-03-01T07:26:07;-3.60;99.90
33255;DHT22;19623;52.482;9.762;2023-03-01T07:28:33;-3.60;99.90
33255;DHT22;19623;52.482;9.762;2023-03-01T07:31:02;-3.50;99.90
33255;DHT22;19623;52.482;9.762;2023-03-01T07:33:28;-3.50;99.90
33255;DHT22;19623;52.482;9.762;2023-03-01T07:36:01;-3.50;99.90
33255;DHT22;19623;52.482;9.762;2023-03-01T07:38:27;-3.50;99.90
33255;DHT22;19623;52.482;9.762;2023-03-01T07:40:57;-3.50;99.90
33255;DHT22;19623;52.482;9.762;2023-03-01T07:43:23;-3.30;99.90
33255;DHT22;19623;52.482;9.762;2023-03-01T07:45:48;-3.20;99.90
33255;DHT22;19623;52.482;9.762;2023-03-01T07:48:14;-3.10;99.90
33255;DHT22;19623;52.482;9.762;2023-03-01T07:50:39;-3.00;99.90
33255;DHT22;19623;52.482;9.762;2023-03-01T07:53:05;-2.90;99.90
33255;DHT22;19623;52.482;9.762;2023-03-01T07:55:31;-2.80;99.90
33255;DHT22;19623;52.482;9.762;2023-03-01T07:57:56;-2.70;99.90
33255;DHT22;19623;52.482;9.762;2023-03-01T08:00:22;-2.50;99.90
33255;DHT22;19623;52.482;9.762;2023-03-01T08:02:48;-2.40;99.90
33255;DHT22;19623;52.482;9.762;2023-03-01T08:05:14;-2.30;99.90
33255;DHT22;19623;52.482;9.762;2023-03-01T08:07:39;-2.20;99.90
33255;DHT22;19623;52.482;9.762;2023-03-01T08:10:05;-2.10;99.90
33255;DHT22;19623;52.482;9.762;2023-03-01T08:12:31;-1.90;99.90
33255;DHT22;19623;52.482;9.762;2023-03-01T08:14:57;-1.80;99.90
33255;DHT22;19623;52.482;9.762;2023-03-01T08:17:23;-1.70;99.90
33255;DHT22;19623;52.482;9.762;2023-03-01T08:19:48;-1.50;99.90
33255;DHT22;19623;52.482;9.762;2023-03-01T08:22:15;-1.40;99.90
33255;DHT22;19623;52.482;9.762;2023-03-01T08:24:40;-1.30;99.90
33255;DHT22;19623;52.482;9.762;2023-03-01T08:27:06;-1.20;99.90
33255;DHT22;19623;52.482;9.762;2023-03-01T08:29:32;-1.10;99.90
33255;DHT22;19623;52.482;9.762;2023-03-01T08:31:58;-1.00;99.90
33255;DHT22;19623;52.482;9.762;2023-03-01T08:34:24;-0.80;99.90
33255;DHT22;19623;52.482;9.762;2023-03-01T08:36:50;-0.80;99.90
33255;DHT22;19623;52.482;9.762;2023-03-01T08:39:18;-0.70;99.90
33255;DHT22;19623;52.482;9.762;2023-03-01T08:41:45;-0.60;99.90
33255;DHT22;19623;52.482;9.762;2023-03-01T08:44:12;-0.40;99.90
33255;DHT22;19623;52.482;9.762;2023-03-01T08:46:40;-0.30;99.90
33255;DHT22;19623;52.482;9.762;2023-03-01T08:49:17;-0.10;99.90
33255;DHT22;19623;52.482;9.762;2023-03-01T08:51:44;0.20;99.90
33255;DHT22;19623;52.482;9.762;2023-03-01T08:54:13;0.20;99.90
33255;DHT22;19623;52.482;9.762;2023-03-01T08:56:40;0.20;99.90
33255;DHT22;19623;52.482;9.762;2023-03-01T08:59:06;0.30;99.90
33255;DHT22;19623;52.482;9.762;2023-03-01T09:01:32;0.40;99.90
33255;DHT22;19623;52.482;9.762;2023-03-01T09:03:58;0.50;99.90
33255;DHT22;19623;52.482;9.762;2023-03-01T09:06:23;0.60;99.90
33255;DHT22;19623;52.482;9.762;2023-03-01T09:08:50;0.70;99.90
33255;DHT22;19623;52.482;9.762;2023-03-01T09:11:18;0.90;99.90
33255;DHT22;19623;52.482;9.762;2023-03-01T09:13:45;1.00;99.90
33255;DHT22;19623;52.482;9.762;2023-03-01T09:16:13;1.00;99.90
33255;DHT22;19623;52.482;9.762;2023-03-01T09:18:39;1.10;99.90
33255;DHT22;19623;52.482;9.762;2023-03-01T09:21:13;1.20;99.90
33255;DHT22;19623;52.482;9.762;2023-03-01T09:23:42;1.40;99.90
33255;DHT22;19623;52.482;9.762;2023-03-01T09:26:10;1.40;99.90
33255;DHT22;19623;52.482;9.762;2023-03-01T09:28:36;1.50;99.90
33255;DHT22;19623;52.482;9.762;2023-03-01T09:31:02;1.50;99.90
33255;DHT22;19623;52.482;9.762;2023-03-01T09:33:31;1.60;99.90
33255;DHT22;19623;52.482;9.762;2023-03-01T09:36:04;1.70;99.90
33255;DHT22;19623;52.482;9.762;2023-03-01T09:38:30;1.80;99.90
33255;DHT22;19623;52.482;9.762;2023-03-01T09:40:56;2.00;99.90
33255;DHT22;19623;52.482;9.762;2023-03-01T09:43:35;2.10;99.90
33255;DHT22;19623;52.482;9.762;2023-03-01T09:46:07;2.20;99.90
33255;DHT22;19623;52.482;9.762;2023-03-01T09:48:45;2.30;99.90
33255;DHT22;19623;52.482;9.762;2023-03-01T09:51:18;2.40;99.90
33255;DHT22;19623;52.482;9.762;2023-03-01T09:53:45;2.50;99.90
33255;DHT22;19623;52.482;9.762;2023-03-01T09:56:39;2.50;99.90
33255;DHT22;19623;52.482;9.762;2023-03-01T09:59:27;2.70;99.90
33255;DHT22;19623;52.482;9.762;2023-03-01T10:04:47;2.90;99.90
33255;DHT22;19623;52.482;9.762;2023-03-01T10:10:06;3.10;99.90
33255;DHT22;19623;52.482;9.762;2023-03-01T10:12:39;3.10;99.90
33255;DHT22;19623;52.482;9.762;2023-03-01T10:15:11;3.20;99.90
33255;DHT22;19623;52.482;9.762;2023-03-01T10:20:30;3.30;99.90
33255;DHT22;19623;52.482;9.762;2023-03-01T10:22:58;3.40;99.90
33255;DHT22;19623;52.482;9.762;2023-03-01T10:25:46;3.50;99.90
33255;DHT22;19623;52.482;9.762;2023-03-01T10:28:35;3.50;99.90
33255;DHT22;19623;52.482;9.762;2023-03-01T10:31:03;3.60;99.90
33255;DHT22;19623;52.482;9.762;2023-03-01T10:33:32;3.60;99.90
33255;DHT22;19623;52.482;9.762;2023-03-01T10:36:00;3.70;99.90
33255;DHT22;19623;52.482;9.762;2023-03-01T10:38:33;3.90;99.90
33255;DHT22;19623;52.482;9.762;2023-03-01T10:41:12;4.20;99.90
33255;DHT22;19623;52.482;9.762;2023-03-01T10:43:51;4.30;99.90
33255;DHT22;19623;52.482;9.762;2023-03-01T10:46:37;4.40;99.90
33255;DHT22;19623;52.482;9.762;2023-03-01T10:51:48;4.50;99.90
33255;DHT22;19623;52.482;9.762;2023-03-01T10:56:48;4.50;99.90
33255;DHT22;19623;52.482;9.762;2023-03-01T10:59:28;4.40;99.90
33255;DHT22;19623;52.482;9.762;2023-03-01T11:04:35;4.60;99.90
33255;DHT22;19623;52.482;9.762;2023-03-01T11:07:02;4.60;99.90
33255;DHT22;19623;52.482;9.762;2023-03-01T11:09:32;4.70;99.90
33255;DHT22;19623;52.482;9.762;2023-03-01T11:12:04;4.80;99.90
33255;DHT22;19623;52.482;9.762;2023-03-01T11:14:36;4.80;99.90
33255;DHT22;19623;52.482;9.762;2023-03-01T11:17:10;4.90;99.90
33255;DHT22;19623;52.482;9.762;2023-03-01T11:19:37;4.80;99.90
33255;DHT22;19623;52.482;9.762;2023-03-01T11:22:27;4.80;99.90
33255;DHT22;19623;52.482;9.762;2023-03-01T11:24:54;4.90;99.90
33255;DHT22;19623;52.482;9.762;2023-03-01T11:27:26;5.00;99.90
33255;DHT22;19623;52.482;9.762;2023-03-01T11:30:02;5.20;99.90
33255;DHT22;19623;52.482;9.762;2023-03-01T11:32:34;5.30;99.90
33255;DHT22;19623;52.482;9.762;2023-03-01T11:35:25;5.40;99.90
33255;DHT22;19623;52.482;9.762;2023-03-01T11:37:58;5.50;99.90
33255;DHT22;19623;52.482;9.762;2023-03-01T12:01:44;5.70;99.90
33255;DHT22;19623;52.482;9.762;2023-03-01T12:07:16;5.90;99.90
33255;DHT22;19623;52.482;9.762;2023-03-01T12:15:20;6.00;99.90
33255;DHT22;19623;52.482;9.762;2023-03-01T12:21:21;6.00;99.90
33255;DHT22;19623;52.482;9.762;2023-03-01T12:24:28;6.20;99.90
33255;DHT22;19623;52.482;9.762;2023-03-01T12:32:39;6.00;99.90
33255;DHT22;19623;52.482;9.762;2023-03-01T12:45:51;5.90;99.90
33255;DHT22;19623;52.482;9.762;2023-03-01T12:48:43;6.00;99.90
33255;DHT22;19623;52.482;9.762;2023-03-01T12:51:16;6.00;99.90
33255;DHT22;19623;52.482;9.762;2023-03-01T12:53:54;6.00;99.90
33255;DHT22;19623;52.482;9.762;2023-03-01T12:56:23;6.00;99.90
33255;DHT22;19623;52.482;9.762;2023-03-01T13:07:14;6.40;99.90
33255;DHT22;19623;52.482;9.762;2023-03-01T13:17:51;6.60;99.90
33255;DHT22;19623;52.482;9.762;2023-03-01T13:20:20;6.60;99.90
33255;DHT22;19623;52.482;9.762;2023-03-01T13:22:47;6.50;99.90
33255;DHT22;19623;52.482;9.762;2023-03-01T13:27:39;6.80;99.90
33255;DHT22;19623;52.482;9.762;2023-03-01T13:35:54;6.60;99.90
33255;DHT22;19623;52.482;9.762;2023-03-01T13:41:10;6.50;99.90
33255;DHT22;19623;52.482;9.762;2023-03-01T13:43:38;6.50;99.90
33255;DHT22;19623;52.482;9.762;2023-03-01T13:46:11;6.60;99.90
33255;DHT22;19623;52.482;9.762;2023-03-01T13:48:38;6.80;99.90
33255;DHT22;19623;52.482;9.762;2023-03-01T13:51:07;6.80;99.90
33255;DHT22;19623;52.482;9.762;2023-03-01T13:53:40;6.80;99.90
33255;DHT22;19623;52.482;9.762;2023-03-01T13:59:02;6.60;99.90
33255;DHT22;19623;52.482;9.762;2023-03-01T14:01:32;6.60;99.90
33255;DHT22;19623;52.482;9.762;2023-03-01T14:03:58;6.60;99.90
33255;DHT22;19623;52.482;9.762;2023-03-01T14:06:29;6.60;99.90
33255;DHT22;19623;52.482;9.762;2023-03-01T14:11:35;6.80;99.90
33255;DHT22;19623;52.482;9.762;2023-03-01T14:17:26;6.90;99.90
33255;DHT22;19623;52.482;9.762;2023-03-01T14:20:03;6.80;99.90
33255;DHT22;19623;52.482;9.762;2023-03-01T14:22:34;6.70;99.90
33255;DHT22;19623;52.482;9.762;2023-03-01T14:25:04;6.70;99.90
33255;DHT22;19623;52.482;9.762;2023-03-01T14:27:36;6.70;99.90
33255;DHT22;19623;52.482;9.762;2023-03-01T14:30:12;6.70;99.90
33255;DHT22;19623;52.482;9.762;2023-03-01T14:32:40;6.80;99.90
33255;DHT22;19623;52.482;9.762;2023-03-01T14:35:30;6.90;99.90
33255;DHT22;19623;52.482;9.762;2023-03-01T14:37:56;6.90;99.90
33255;DHT22;19623;52.482;9.762;2023-03-01T14:40:34;6.90;99.90
33255;DHT22;19623;52.482;9.762;2023-03-01T14:43:10;6.80;99.90
33255;DHT22;19623;52.482;9.762;2023-03-01T14:45:36;6.80;99.90
33255;DHT22;19623;52.482;9.762;2023-03-01T14:48:05;6.80;99.90
33255;DHT22;19623;52.482;9.762;2023-03-01T14:50:33;6.70;99.90
33255;DHT22;19623;52.482;9.762;2023-03-01T14:53:02;6.80;99.90
33255;DHT22;19623;52.482;9.762;2023-03-01T14:55:32;6.80;99.90
33255;DHT22;19623;52.482;9.762;2023-03-01T14:58:03;6.80;99.90
33255;DHT22;19623;52.482;9.762;2023-03-01T15:00:30;6.80;99.90
33255;DHT22;19623;52.482;9.762;2023-03-01T15:03:01;6.70;99.90
33255;DHT22;19623;52.482;9.762;2023-03-01T15:05:32;6.70;99.90
33255;DHT22;19623;52.482;9.762;2023-03-01T15:07:59;6.70;99.90
33255;DHT22;19623;52.482;9.762;2023-03-01T15:10:34;6.70;99.90
33255;DHT22;19623;52.482;9.762;2023-03-01T15:13:19;6.70;99.90
33255;DHT22;19623;52.482;9.762;2023-03-01T15:15:47;6.70;99.90
33255;DHT22;19623;52.482;9.762;2023-03-01T15:18:22;6.80;99.90
33255;DHT22;19623;52.482;9.762;2023-03-01T15:20:51;6.80;99.90
33255;DHT22;19623;52.482;9.762;2023-03-01T15:23:28;6.80;99.90
33255;DHT22;19623;52.482;9.762;2023-03-01T15:25:56;6.70;99.90
33255;DHT22;19623;52.482;9.762;2023-03-01T15:28:25;6.70;99.90
33255;DHT22;19623;52.482;9.762;2023-03-01T15:31:11;6.70;99.90
33255;DHT22;19623;52.482;9.762;2023-03-01T15:33:40;6.60;99.90
33255;DHT22;19623;52.482;9.762;2023-03-01T15:36:44;6.70;99.90
33255;DHT22;19623;52.482;9.762;2023-03-01T15:39:39;6.60;99.90
33255;DHT22;19623;52.482;9.762;2023-03-01T15:47:41;6.60;99.90
33255;DHT22;19623;52.482;9.762;2023-03-01T15:50:26;6.60;99.90
33255;DHT22;19623;52.482;9.762;2023-03-01T15:52:53;6.50;99.90
33255;DHT22;19623;52.482;9.762;2023-03-01T15:55:30;6.60;99.90
33255;DHT22;19623;52.482;9.762;2023-03-01T15:58:14;6.70;99.90
33255;DHT22;19623;52.482;9.762;2023-03-01T16:00:41;6.70;99.90
33255;DHT22;19623;52.482;9.762;2023-03-01T16:03:09;6.60;99.90
33255;DHT22;19623;52.482;9.762;2023-03-01T16:05:37;6.50;99.90
33255;DHT22;19623;52.482;9.762;2023-03-01T16:08:06;6.50;99.90
33255;DHT22;19623;52.482;9.762;2023-03-01T16:10:33;6.50;99.90
33255;DHT22;19623;52.482;9.762;2023-03-01T16:12:59;6.40;99.90
33255;DHT22;19623;52.482;9.762;2023-03-01T16:15:31;6.20;99.90
33255;DHT22;19623;52.482;9.762;2023-03-01T16:17:57;6.20;99.90
33255;DHT22;19623;52.482;9.762;2023-03-01T16:20:26;6.20;99.90
33255;DHT22;19623;52.482;9.762;2023-03-01T16:22:52;6.20;99.90
33255;DHT22;19623;52.482;9.762;2023-03-01T16:25:19;6.20;99.90
33255;DHT22;19623;52.482;9.762;2023-03-01T16:27:47;6.20;99.90
33255;DHT22;19623;52.482;9.762;2023-03-01T16:30:15;6.10;99.90
33255;DHT22;19623;52.482;9.762;2023-03-01T16:32:44;6.10;99.90
33255;DHT22;19623;52.482;9.762;2023-03-01T16:35:12;5.90;99.90
33255;DHT22;19623;52.482;9.762;2023-03-01T16:37:39;5.80;99.90
33255;DHT22;19623;52.482;9.762;2023-03-01T16:40:09;5.70;99.90
33255;DHT22;19623;52.482;9.762;2023-03-01T16:42:40;5.60;99.90
33255;DHT22;19623;52.482;9.762;2023-03-01T16:45:08;5.50;99.90
33255;DHT22;19623;52.482;9.762;2023-03-01T16:47:34;5.40;99.90
33255;DHT22;19623;52.482;9.762;2023-03-01T16:49:59;5.30;99.90
33255;DHT22;19623;52.482;9.762;2023-03-01T16:52:25;5.10;99.90
33255;DHT22;19623;52.482;9.762;2023-03-01T16:54:54;5.10;99.90
33255;DHT22;19623;52.482;9.762;2023-03-01T16:57:26;4.90;99.90
33255;DHT22;19623;52.482;9.762;2023-03-01T16:59:52;4.80;99.90
33255;DHT22;19623;52.482;9.762;2023-03-01T17:02:20;4.70;99.90
33255;DHT22;19623;52.482;9.762;2023-03-01T17:04:52;4.50;99.90
33255;DHT22;19623;52.482;9.762;2023-03-01T17:07:18;4.40;99.90
33255;DHT22;19623;52.482;9.762;2023-03-01T17:09:44;4.30;99.90
33255;DHT22;19623;52.482;9.762;2023-03-01T17:12:12;4.20;99.90
33255;DHT22;19623;52.482;9.762;2023-03-01T17:14:38;4.10;99.90
33255;DHT22;19623;52.482;9.762;2023-03-01T17:17:04;4.00;99.90
33255;DHT22;19623;52.482;9.762;2023-03-01T17:19:29;3.90;99.90
33255;DHT22;19623;52.482;9.762;2023-03-01T17:21:57;3.80;99.90
33255;DHT22;19623;52.482;9.762;2023-03-01T17:24:23;3.80;99.90
33255;DHT22;19623;52.482;9.762;2023-03-01T17:26:48;3.70;99.90
33255;DHT22;19623;52.482;9.762;2023-03-01T17:29:14;3.60;99.90
33255;DHT22;19623;52.482;9.762;2023-03-01T17:31:42;3.50;99.90
33255;DHT22;19623;52.482;9.762;2023-03-01T17:34:08;3.40;99.90
33255;DHT22;19623;52.482;9.762;2023-03-01T17:36:33;3.40;99.90
33255;DHT22;19623;52.482;9.762;2023-03-01T17:39:06;3.20;99.90
33255;DHT22;19623;52.482;9.762;2023-03-01T17:41:31;3.10;99.90
33255;DHT22;19623;52.482;9.762;2023-03-01T17:43:57;3.00;99.90
33255;DHT22;19623;52.482;9.762;2023-03-01T17:46:22;2.90;99.90
33255;DHT22;19623;52.482;9.762;2023-03-01T17:48:49;2.90;99.90
33255;DHT22;19623;52.482;9.762;2023-03-01T17:51:14;2.80;99.90